createdAt,value
2022-11-30T00:00:29.163Z,44.83
2022-11-30T00:05:51.309Z,41.80
2022-11-30T00:11:17.699Z,47.90
2022-11-30T00:16:39.480Z,46.57
2022-11-30T00:22:01.233Z,46.23
2022-11-30T00:27:22.927Z,49.23
2022-11-30T00:32:44.626Z,50.03
2022-11-30T00:38:06.324Z,47.20
2022-11-30T00:43:38.791Z,45.80
2022-11-30T00:49:00.503Z,45.47
2022-11-30T00:54:22.240Z,48.47
2022-11-30T00:59:43.902Z,46.87
2022-11-30T01:05:06.100Z,47.63
2022-11-30T01:10:27.887Z,41.63
2022-11-30T01:15:49.723Z,43.40
2022-11-30T01:21:13.718Z,42.83
2022-11-30T01:26:35.778Z,43.27
2022-11-30T01:31:57.488Z,46.63
2022-11-30T01:37:19.246Z,42.70
2022-11-30T01:42:45.885Z,42.57
2022-11-30T01:48:08.872Z,39.07
2022-11-30T01:53:30.689Z,42.67
2022-11-30T01:58:52.910Z,41.20
2022-11-30T02:04:20.787Z,39.30
2022-11-30T02:09:44.218Z,37.13
2022-11-30T02:15:11.921Z,38.67
2022-11-30T02:20:59.238Z,38.10
2022-11-30T02:26:51.562Z,36.37
2022-11-30T02:32:16.299Z,42.73
2022-11-30T02:37:39.337Z,39.03
2022-11-30T02:43:04.668Z,34.27
2022-11-30T02:48:52.559Z,33.67
2022-11-30T02:54:14.362Z,36.13
2022-11-30T02:59:36.207Z,37.83
2022-11-30T03:04:57.898Z,29.97
2022-11-30T03:10:19.660Z,31.20
2022-11-30T03:15:41.419Z,30.37
2022-11-30T03:21:08.178Z,29.93
2022-11-30T03:26:29.953Z,31.33
2022-11-30T03:31:51.641Z,28.00
2022-11-30T03:37:13.421Z,28.63
2022-11-30T03:42:35.279Z,26.83
2022-11-30T03:47:56.940Z,29.20
2022-11-30T03:53:23.575Z,29.00
2022-11-30T03:58:45.332Z,28.70
2022-11-30T04:04:07.568Z,31.27
2022-11-30T04:09:29.249Z,27.27
2022-11-30T04:14:50.935Z,27.13
2022-11-30T04:20:12.803Z,27.20
2022-11-30T04:25:34.485Z,28.27
2022-11-30T04:30:56.328Z,29.77
2022-11-30T04:36:19.711Z,30.20
2022-11-30T04:41:41.392Z,30.73
2022-11-30T04:47:03.125Z,24.87
2022-11-30T04:52:24.873Z,29.87
2022-11-30T04:57:47.103Z,27.40
2022-11-30T05:03:08.817Z,23.70
2022-11-30T05:08:30.903Z,27.73
2022-11-30T05:13:52.582Z,26.77
2022-11-30T05:19:14.781Z,26.30
2022-11-30T05:24:36.492Z,26.57
2022-11-30T05:29:58.862Z,26.53
2022-11-30T05:35:20.561Z,23.57
2022-11-30T05:40:42.247Z,24.87
2022-11-30T05:46:05.991Z,25.27
2022-11-30T05:51:27.691Z,23.52
2022-11-30T05:56:54.492Z,23.20
2022-11-30T06:02:16.930Z,21.73
2022-11-30T06:07:38.684Z,21.13
2022-11-30T06:13:06.529Z,21.77
2022-11-30T06:18:28.481Z,23.37
2022-11-30T06:23:50.162Z,20.77
2022-11-30T06:29:11.884Z,23.63
2022-11-30T06:34:33.642Z,22.83
2022-11-30T06:40:06.358Z,21.77
2022-11-30T06:45:28.567Z,21.73
2022-11-30T06:50:50.413Z,20.23
2022-11-30T06:56:12.490Z,23.70
2022-11-30T07:01:34.249Z,19.47
2022-11-30T07:06:56.499Z,23.33
2022-11-30T07:12:18.289Z,21.50
2022-11-30T07:17:40.039Z,19.10
2022-11-30T07:23:22.024Z,20.87
2022-11-30T07:28:46.597Z,24.37
2022-11-30T07:34:09.419Z,21.40
2022-11-30T07:39:31.217Z,23.73
2022-11-30T07:44:58.352Z,23.37
2022-11-30T07:50:20.611Z,22.70
2022-11-30T07:55:43.023Z,25.33
2022-11-30T08:01:11.245Z,24.10
2022-11-30T08:06:33.133Z,22.60
2022-11-30T08:11:54.868Z,24.73
2022-11-30T08:17:16.639Z,25.63
2022-11-30T08:22:38.355Z,25.90
2022-11-30T08:28:00.087Z,25.40
2022-11-30T08:33:21.814Z,29.80
2022-11-30T08:38:47.907Z,28.63
2022-11-30T08:44:09.714Z,28.77
2022-11-30T08:49:31.409Z,30.63
2022-11-30T08:54:53.361Z,32.40
2022-11-30T09:00:16.049Z,30.60
2022-11-30T09:05:37.777Z,30.67
2022-11-30T09:10:59.570Z,30.43
2022-11-30T09:16:21.668Z,30.67
2022-11-30T09:21:49.794Z,27.43
2022-11-30T09:27:13.247Z,29.83
2022-11-30T09:32:34.970Z,38.63
2022-11-30T09:37:56.671Z,31.70
2022-11-30T09:44:01.396Z,31.60
2022-11-30T09:49:26.761Z,32.40
2022-11-30T09:54:49.057Z,31.30
2022-11-30T10:00:21.630Z,31.03
2022-11-30T10:05:56.605Z,32.63
2022-11-30T10:11:28.213Z,29.43
2022-11-30T10:17:15.049Z,29.83
2022-11-30T10:22:52.019Z,33.97
2022-11-30T10:28:45.637Z,31.20
2022-11-30T10:34:16.426Z,28.87
2022-11-30T10:40:00.276Z,27.13
2022-11-30T10:45:23.808Z,31.43
2022-11-30T10:50:45.846Z,27.90
2022-11-30T10:56:11.135Z,30.10
2022-11-30T11:01:41.599Z,28.03
2022-11-30T11:07:10.691Z,28.47
2022-11-30T11:12:32.892Z,28.90
2022-11-30T11:18:19.754Z,27.00
2022-11-30T11:23:43.551Z,28.03
2022-11-30T11:29:05.306Z,33.70
2022-11-30T11:34:36.329Z,25.20
2022-11-30T11:40:02.191Z,23.97
2022-11-30T11:45:27.928Z,23.87
2022-11-30T11:51:10.368Z,31.03
2022-11-30T11:56:37.169Z,26.17
2022-11-30T12:02:05.616Z,20.87
2022-11-30T12:07:56.204Z,20.88
2022-11-30T12:13:22.035Z,24.02
2022-11-30T12:19:02.171Z,22.37
2022-11-30T12:24:48.806Z,22.40
2022-11-30T12:30:29.080Z,25.23
2022-11-30T12:36:12.560Z,21.63
2022-11-30T12:41:54.675Z,21.00
2022-11-30T12:47:45.511Z,20.73
2022-11-30T12:53:19.614Z,23.40
2022-11-30T12:58:52.509Z,21.33
2022-11-30T13:04:57.660Z,27.87
2022-11-30T13:10:30.234Z,29.43
2022-11-30T13:15:52.649Z,24.40
2022-11-30T13:21:26.804Z,23.40
2022-11-30T13:27:18.133Z,24.87
2022-11-30T13:38:37.036Z,24.00
2022-11-30T13:43:59.725Z,26.10
2022-11-30T13:49:23.456Z,23.20
2022-11-30T13:54:50.800Z,23.67
2022-11-30T14:00:31.334Z,19.50
2022-11-30T14:05:55.135Z,22.40
2022-11-30T14:11:36.836Z,21.50
2022-11-30T14:16:59.251Z,21.23
2022-11-30T14:22:21.721Z,18.70
2022-11-30T14:27:44.423Z,19.63
2022-11-30T14:33:19.331Z,23.33
2022-11-30T14:38:42.439Z,21.27
2022-11-30T14:44:13.105Z,30.40
2022-11-30T14:49:34.873Z,31.77
2022-11-30T14:55:20.287Z,21.90
2022-11-30T15:00:44.979Z,20.13
2022-11-30T15:06:06.895Z,30.40
2022-11-30T15:11:29.164Z,22.07
2022-11-30T15:17:03.692Z,24.30
2022-11-30T15:22:25.481Z,30.73
2022-11-30T15:27:47.528Z,28.50
2022-11-30T15:33:23.267Z,26.33
2022-11-30T15:38:50.552Z,27.73
2022-11-30T15:44:37.069Z,25.85
2022-11-30T15:49:58.764Z,25.40
2022-11-30T15:55:40.299Z,25.20
2022-11-30T16:01:11.938Z,31.63
2022-11-30T16:06:45.079Z,29.93
2022-11-30T16:12:20.448Z,27.83
2022-11-30T16:17:42.226Z,26.83
2022-11-30T16:23:05.976Z,30.23
2022-11-30T16:28:27.931Z,30.37
2022-11-30T16:33:49.987Z,27.37
2022-11-30T16:39:12.740Z,32.50
2022-11-30T16:44:34.476Z,31.17
2022-11-30T16:49:56.296Z,29.60
2022-11-30T16:55:20.792Z,31.97
2022-11-30T17:00:42.582Z,31.03
2022-11-30T17:06:13.592Z,32.10
2022-11-30T17:11:37.531Z,28.50
2022-11-30T17:17:03.191Z,29.80
2022-11-30T17:22:25.161Z,32.17
2022-11-30T17:27:48.521Z,27.70
2022-11-30T17:33:10.321Z,28.10
2022-11-30T17:38:32.985Z,28.17
2022-11-30T17:43:54.760Z,24.33
2022-11-30T17:49:16.592Z,25.87
2022-11-30T17:54:38.413Z,22.67
2022-11-30T18:00:00.168Z,21.07
2022-11-30T18:05:22.229Z,23.10
2022-11-30T18:10:46.103Z,22.47
2022-11-30T18:16:10.636Z,19.27
2022-11-30T18:21:32.354Z,20.13
2022-11-30T18:26:54.084Z,20.42
2022-11-30T18:32:15.785Z,16.33
2022-11-30T18:37:37.675Z,22.57
2022-11-30T18:42:59.458Z,21.40
2022-11-30T18:48:21.138Z,19.77
2022-11-30T18:53:44.264Z,20.17
2022-11-30T18:59:13.285Z,24.20
2022-11-30T19:04:35.028Z,25.17
2022-11-30T19:09:56.766Z,24.20
2022-11-30T19:15:18.541Z,24.20
2022-11-30T19:20:41.002Z,23.27
2022-11-30T19:26:04.086Z,25.77
2022-11-30T19:31:26.852Z,23.60
2022-11-30T19:36:49.137Z,25.17
2022-11-30T19:42:11.315Z,26.60
2022-11-30T19:47:33.128Z,25.10
2022-11-30T19:52:54.983Z,27.30
2022-11-30T19:58:16.825Z,24.93
2022-11-30T20:03:38.640Z,25.37
2022-11-30T20:09:00.454Z,25.23
2022-11-30T20:14:23.088Z,23.10
2022-11-30T20:19:44.891Z,22.80
2022-11-30T20:25:06.857Z,22.27
2022-11-30T20:30:28.753Z,23.67
2022-11-30T20:35:50.660Z,22.60
2022-11-30T20:41:18.460Z,23.30
2022-11-30T20:46:40.600Z,22.90
2022-11-30T20:52:02.864Z,22.57
2022-11-30T20:57:24.692Z,22.20
2022-11-30T21:02:46.574Z,22.17
2022-11-30T21:08:08.542Z,25.20
2022-11-30T21:13:30.561Z,23.60
2022-11-30T21:18:52.478Z,22.00
2022-11-30T21:24:14.322Z,20.00
2022-11-30T21:29:36.237Z,22.10
2022-11-30T21:34:58.076Z,21.23
2022-11-30T21:40:19.785Z,19.47
2022-11-30T21:45:41.504Z,18.83
2022-11-30T21:51:15.204Z,17.77
2022-11-30T21:56:38.975Z,20.37
2022-11-30T22:02:00.851Z,21.47
2022-11-30T22:07:31.723Z,20.27
2022-11-30T22:12:53.623Z,21.23
2022-11-30T22:18:15.490Z,20.10
2022-11-30T22:23:39.464Z,22.90
2022-11-30T22:29:06.838Z,27.53
2022-11-30T22:34:29.208Z,22.33
2022-11-30T22:39:51.151Z,21.43
2022-11-30T22:45:12.970Z,21.03
2022-11-30T22:50:35.087Z,23.47
2022-11-30T22:56:01.938Z,24.17
2022-11-30T23:01:26.127Z,24.50
2022-11-30T23:06:49.408Z,24.40
2022-11-30T23:12:20.343Z,27.20
2022-11-30T23:17:51.820Z,29.60
2022-11-30T23:23:13.545Z,27.13
2022-11-30T23:28:35.432Z,34.10
2022-11-30T23:33:57.151Z,31.47
2022-11-30T23:39:20.009Z,29.13
2022-11-30T23:44:41.708Z,27.70
2022-11-30T23:50:05.456Z,29.73
2022-11-30T23:55:28.383Z,31.67
